Latest Weather Observations for Hobart

IDT60801

Issued at 10:01 am EST Wednesday 2 September 2015 (issued every 30 minutes, with the page automatically refreshed every 10 minutes)

About weather observations | Map of weather stations | Latest weather observations for TAS | Other Formats
Station Details ID: 094029 Name: HOBART (ELLERSLIE ROAD) Lat: -42.89 Lon: 147.33 Height: 50.5 m
Data from the previous 72 hours. | See also: Recent months at Hobart
Date/Time
EST
Temp
°C
App
Temp
°C
Dew
Point
Rel
Hum
%
Delta-T
°C
Wind Press
QNH
hPa
Press
MSL
hPa
Rain
since 9 am
mm
Dir
 
Spd
km/h
Gust
km/h
Spd
kts
Gust
kts
02/10:00am 9.1 5.0 4.1 71 2.2 NW 15 24 8 13 1012.2 1012.2 0.0
02/09:30am 7.5 3.8 4.3 80 1.4 NW 13 19 7 10 1012.4 1012.4 0.0
02/09:00am 6.3 2.1 4.0 85 1.0 NW 15 24 8 13 1012.5 1012.5 0.0
02/08:30am 5.8 2.1 4.4 91 0.6 NNW 13 20 7 11 1012.8 1012.8 0.0
02/08:00am 5.4 2.0 4.2 92 0.5 NW 11 17 6 9 1012.9 1012.9 0.0
02/07:30am 5.0 1.3 4.3 95 0.3 NW 13 19 7 10 1012.9 1012.9 0.0
02/07:00am 4.9 0.8 4.2 95 0.3 NW 15 22 8 12 1012.6 1012.6 0.0
02/06:30am 4.8 0.7 4.1 95 0.3 NW 15 22 8 12 1012.4 1012.4 0.0
02/06:00am 4.9 0.4 4.4 97 0.2 NNW 17 28 9 15 1012.4 1012.4 0.0
02/05:30am 4.9 1.6 4.7 99 0.1 NW 11 17 6 9 1012.5 1012.5 0.0
02/05:00am 5.0 0.9 4.5 97 0.2 WNW 15 22 8 12 1012.7 1012.7 0.0
02/04:30am 4.7 0.2 4.2 97 0.2 NW 17 22 9 12 1012.7 1012.7 0.0
02/04:00am 4.7 1.0 4.2 97 0.2 NNW 13 20 7 11 1012.6 1012.6 0.0
02/03:30am 3.8 1.9 3.1 95 0.3 WNW 2 6 1 3 1012.6 1012.6 0.0
02/03:00am 3.8 1.0 3.1 95 0.3 NNW 7 9 4 5 1013.2 1013.2 0.0
02/02:30am 4.2 2.8 3.5 95 0.3 CALM 0 0 0 0 1013.7 1013.7 0.0
02/02:00am 4.4 2.3 3.7 95 0.3 NW 4 7 2 4 1014.0 1014.0 0.0
02/01:30am 4.6 2.1 3.6 93 0.4 W 6 9 3 5 1014.1 1014.1 0.0
02/01:00am 4.6 1.9 3.9 95 0.3 NW 7 9 4 5 1014.1 1014.1 0.0
02/12:30am 4.8 2.3 3.8 93 0.4 N 6 9 3 5 1014.2 1014.2 0.0
02/12:00am 5.2 2.2 4.3 94 0.4 WSW 9 13 5 7 1014.1 1014.1 0.0
 
Date/Time
EST
Temp
°C
App
Temp
°C
Dew
Point
Rel
Hum
%
Delta-T
°C
Wind Press
QNH
hPa
Press
MSL
hPa
Rain
since 9 am
mm
Dir
 
Spd
km/h
Gust
km/h
Spd
kts
Gust
kts
01/11:30pm 5.3 4.1 4.4 94 0.4 CALM 0 0 0 0 1014.3 1014.3 0.0
01/11:00pm 5.7 3.3 4.5 92 0.5 NW 6 7 3 4 1014.2 1014.2 0.0
01/10:30pm 6.0 3.5 4.6 91 0.6 NW 7 9 4 5 1014.5 1014.5 0.0
01/10:00pm 5.8 2.9 4.4 91 0.6 W 9 11 5 6 1014.5 1014.5 0.0
01/09:30pm 6.2 3.3 4.8 91 0.6 WSW 9 13 5 7 1014.4 1014.4 0.0
01/09:00pm 6.6 4.1 5.0 89 0.7 WSW 7 11 4 6 1014.4 1014.4 0.0
01/08:30pm 6.9 4.1 5.1 88 0.8 WSW 9 11 5 6 1014.2 1014.2 0.0
01/08:00pm 7.1 3.5 5.1 87 0.9 WSW 13 13 7 7 1014.2 1014.2 0.0
01/07:30pm 7.1 4.0 5.5 89 0.7 WSW 11 15 6 8 1014.1 1014.1 0.0
01/07:00pm 7.5 5.2 5.7 88 0.8 SW 7 9 4 5 1013.8 1013.8 0.0
01/06:30pm 7.8 5.6 6.0 88 0.8 SW 7 13 4 7 1013.8 1013.8 0.0
01/06:00pm 8.5 5.9 6.1 85 1.1 SSE 9 15 5 8 1013.6 1013.6 0.0
01/05:30pm 8.8 5.9 6.4 85 1.1 SSW 11 17 6 9 1013.8 1013.8 0.0
01/05:00pm 9.4 6.9 6.4 81 1.4 SE 9 13 5 7 1013.5 1013.5 0.0
01/04:30pm 9.9 6.4 5.5 74 2.0 SE 13 17 7 9 1013.6 1013.6 0.0
01/04:00pm 10.3 6.5 5.7 73 2.1 SE 15 17 8 9 1013.8 1013.8 0.0
01/03:30pm 10.6 7.5 5.6 71 2.3 SE 11 15 6 8 1014.0 1014.0 0.0
01/03:00pm 10.3 7.1 5.3 71 2.3 ESE 11 15 6 8 1014.2 1014.2 0.0
01/02:30pm 10.2 7.0 5.1 70 2.3 ESE 11 13 6 7 1014.3 1014.3 0.0
01/02:00pm 10.6 7.8 5.1 69 2.5 SE 9 13 5 7 1014.5 1014.5 0.0
01/01:30pm 10.2 7.1 5.4 72 2.2 SE 11 13 6 7 1014.8 1014.8 0.0
01/01:00pm 9.9 7.1 5.0 71 2.2 ESE 9 9 5 5 1015.0 1015.0 0.0
01/12:30pm 10.1 6.9 5.0 70 2.3 ESE 11 15 6 8 1015.3 1015.3 0.0
01/12:00pm 9.8 7.0 5.2 73 2.1 ENE 9 13 5 7 1015.7 1015.7 0.0
01/11:30am 9.9 6.3 5.0 71 2.2 ENE 13 17 7 9 1016.0 1016.0 0.0
01/11:00am 12.5 9.4 5.4 62 3.3 N 11 17 6 9 1015.9 1015.9 0.0
01/10:30am 11.2 8.8 5.3 67 2.7 NNE 7 11 4 6 1016.2 1016.2 0.0
01/10:00am 9.8 7.3 4.9 71 2.2 NE 7 11 4 6 1016.5 1016.5 0.0
01/09:30am 8.4 5.9 4.5 76 1.7 N 7 9 4 5 1016.8 1016.9 0.0
01/09:00am 7.6 5.7 4.9 83 1.2 N 4 7 2 4 1016.9 1017.0 0.4
01/08:30am 6.3 3.7 4.4 88 0.8 NNW 7 11 4 6 1016.9 1017.0 0.4
01/08:00am 5.5 2.5 4.1 91 0.6 NNW 9 13 5 7 1016.8 1016.9 0.4
01/07:30am 5.3 2.3 3.9 91 0.6 NNW 9 11 5 6 1016.8 1016.9 0.4
01/07:00am 4.5 2.0 3.5 93 0.4 NW 6 7 3 4 1016.7 1016.8 0.4
01/06:30am 4.8 3.4 3.8 93 0.4 CALM 0 0 0 0 1016.6 1016.7 0.4
01/06:00am 5.1 3.8 4.2 94 0.4 CALM 0 0 0 0 1016.5 1016.6 0.4
01/05:30am 5.2 3.9 4.0 92 0.5 CALM 0 0 0 0 1016.5 1016.6 0.4
01/05:00am 5.6 3.0 4.2 91 0.6 WNW 7 9 4 5 1016.5 1016.6 0.4
01/04:30am 6.1 4.5 4.5 89 0.7 NNW 2 7 1 4 1016.6 1016.7 0.4
01/04:00am 6.2 3.9 4.6 89 0.7 W 6 11 3 6 1016.6 1016.7 0.4
01/03:30am 6.5 3.6 4.7 88 0.8 WSW 9 13 5 7 1016.8 1016.9 0.4
01/03:00am 7.0 4.8 5.2 88 0.8 WNW 6 7 3 4 1016.9 1017.0 0.4
01/02:30am 7.8 6.7 5.1 83 1.2 CALM 0 4 0 2 1017.0 1017.1 0.4
01/02:00am 7.7 5.7 6.2 90 0.7 SSW 6 7 3 4 1017.4 1017.5 0.4
01/01:30am 7.7 5.2 6.4 91 0.6 SSW 9 13 5 7 1017.8 1017.9 0.4
01/01:00am 8.0 5.0 5.8 86 1.0 SSW 11 15 6 8 1017.9 1018.0 0.4
01/12:30am 7.8 4.4 6.0 88 0.8 SSW 13 17 7 9 1018.2 1018.3 0.4
01/12:00am 8.0 5.0 6.2 88 0.8 SSW 11 17 6 9 1018.1 1018.2 0.4
 
Date/Time
EST
Temp
°C
App
Temp
°C
Dew
Point
Rel
Hum
%
Delta-T
°C
Wind Press
QNH
hPa
Press
MSL
hPa
Rain
since 9 am
mm
Dir
 
Spd
km/h
Gust
km/h
Spd
kts
Gust
kts
31/11:30pm 7.9 4.1 5.9 87 0.9 SW 15 20 8 11 1018.1 1018.2 0.4
31/11:00pm 8.0 4.3 6.2 88 0.8 SSW 15 19 8 10 1018.5 1018.6 0.4
31/10:30pm 8.1 5.2 6.4 89 0.8 SSW 11 15 6 8 1018.8 1018.9 0.4
31/10:00pm 8.3 5.0 6.3 87 0.9 SSW 13 15 7 8 1019.1 1019.2 0.4
31/09:30pm 8.8 5.0 5.7 81 1.4 S 15 22 8 12 1019.2 1019.3 0.4
31/09:00pm 8.7 6.6 6.8 88 0.9 S 7 11 4 6 1019.3 1019.4 0.4
31/08:30pm 8.8 6.4 7.1 89 0.8 S 9 13 5 7 1019.2 1019.3 0.4
31/08:00pm 8.7 6.7 7.2 90 0.7 S 7 9 4 5 1019.2 1019.3 0.4
31/07:30pm 8.6 5.9 7.3 91 0.6 SSW 11 17 6 9 1019.2 1019.3 0.4
31/07:00pm 8.5 5.5 7.7 95 0.4 S 13 19 7 10 1019.1 1019.2 0.4
31/06:30pm 8.6 5.2 7.5 93 0.5 SSW 15 19 8 10 1019.0 1019.1 0.2
31/06:00pm 8.8 5.7 7.1 89 0.8 SSW 13 19 7 10 1019.1 1019.2 0.2
31/05:30pm 8.9 5.1 7.4 90 0.7 SSW 17 24 9 13 1019.1 1019.2 0.2
31/05:00pm 9.7 5.6 6.2 79 1.6 S 17 30 9 16 1019.1 1019.2 0.2
31/04:30pm 10.3 6.1 5.7 73 2.1 S 17 30 9 16 1019.1 1019.2 0.2
31/04:00pm 10.6 5.8 4.8 67 2.6 SSW 19 26 10 14 1019.1 1019.2 0.2
31/03:30pm 10.6 5.5 4.3 65 2.8 S 20 32 11 17 1019.1 1019.2 0.2
31/03:00pm 11.0 5.4 3.5 60 3.3 SSW 22 32 12 17 1019.4 1019.5 0.0
31/02:30pm 11.2 7.0 3.7 60 3.3 S 15 22 8 12 1019.6 1019.7 0.0
31/02:00pm 11.2 6.6 3.7 60 3.3 SSE 17 28 9 15 1019.6 1019.7 0.0
31/01:30pm 11.0 6.2 4.8 65 2.8 SE 19 24 10 13 1019.9 1020.0 0.0
31/01:00pm 11.4 7.2 3.7 59 3.4 S 15 24 8 13 1020.3 1020.4 0.0
31/12:30pm 10.8 6.1 3.2 59 3.3 SSW 17 24 9 13 1020.6 1020.7 0.0
31/12:00pm 10.3 5.7 3.7 63 2.9 SSW 17 26 9 14 1021.1 1021.2 0.0
31/11:30am 9.8 4.7 3.9 66 2.6 SSW 20 26 11 14 1021.4 1021.5 0.0
31/11:00am 9.7 6.1 5.0 72 2.1 SSW 13 20 7 11 1021.5 1021.6 0.0
31/10:30am 9.7 5.9 4.0 67 2.5 S 13 17 7 9 1021.7 1021.8 0.0
31/10:00am 9.9 6.4 5.3 73 2.1 SSW 13 19 7 10 1021.9 1022.0 0.0
31/09:30am 8.4 4.5 5.3 81 1.4 SSW 15 22 8 12 1022.1 1022.2 0.0
31/09:00am 7.7 4.0 6.2 90 0.7 SSW 15 20 8 11 1022.2 1022.3 2.4
31/08:30am 7.8 4.4 6.0 88 0.8 SSW 13 20 7 11 1022.2 1022.3 2.4
31/08:00am 7.1 3.8 6.2 94 0.4 S 13 19 7 10 1022.4 1022.5 2.4
31/07:30am 6.6 2.8 5.7 94 0.4 SSW 15 22 8 12 1022.1 1022.2 2.4
31/07:00am 6.6 3.6 5.9 95 0.3 SSW 11 19 6 10 1022.1 1022.2 2.4
31/06:30am 6.7 3.3 5.8 94 0.4 S 13 17 7 9 1022.0 1022.1 2.0
31/06:00am 6.7 2.5 5.8 94 0.4 SSW 17 22 9 12 1022.0 1022.1 1.8
31/05:30am 6.6 3.6 5.9 95 0.3 SSW 11 17 6 9 1022.2 1022.3 1.6
31/05:00am 6.8 3.4 5.7 93 0.5 SSW 13 22 7 12 1022.3 1022.4 1.0
31/04:30am 6.6 3.2 5.7 94 0.4 SSW 13 20 7 11 1022.3 1022.4 0.6
31/04:00am 6.5 3.4 5.6 94 0.4 SW 11 17 6 9 1022.4 1022.5 0.6
31/03:30am 6.3 3.9 5.4 94 0.4 SW 7 9 4 5 1022.5 1022.6 0.6
31/03:00am 6.5 3.4 5.4 93 0.5 SSW 11 17 6 9 1022.6 1022.7 0.4
31/02:30am 6.7 2.3 4.6 86 0.9 SW 17 20 9 11 1022.9 1023.0 0.4
31/02:00am 6.6 3.3 4.8 88 0.8 SSW 11 17 6 9 1023.2 1023.3 0.4
31/01:30am 6.2 2.5 4.6 89 0.7 SW 13 19 7 10 1023.4 1023.5 0.4
31/01:00am 6.7 2.4 5.1 89 0.7 SW 17 22 9 12 1023.5 1023.6 0.4
31/12:30am 6.5 2.2 5.1 91 0.6 SW 17 24 9 13 1023.7 1023.8 0.4
31/12:00am 6.5 2.7 5.6 94 0.4 SW 15 20 8 11 1023.9 1024.0 0.4
 
Date/Time
EST
Temp
°C
App
Temp
°C
Dew
Point
Rel
Hum
%
Delta-T
°C
Wind Press
QNH
hPa
Press
MSL
hPa
Rain
since 9 am
mm
Dir
 
Spd
km/h
Gust
km/h
Spd
kts
Gust
kts
30/11:30pm 6.9 3.3 4.8 86 0.9 SSW 13 19 7 10 1024.1 1024.2 0.4
30/11:00pm 6.9 3.6 4.6 85 1.0 SW 11 17 6 9 1024.3 1024.4 0.4
30/10:30pm 7.0 2.6 4.9 86 0.9 SSW 17 26 9 14 1024.5 1024.6 0.4
30/10:00pm 7.1 3.2 5.3 88 0.8 SW 15 22 8 12 1024.6 1024.7 0.4
30/09:30pm 7.1 2.5 5.5 89 0.7 SSW 19 28 10 15 1024.7 1024.8 0.4
30/09:00pm 7.0 2.2 5.4 89 0.7 SSW 20 28 11 15 1024.7 1024.8 0.2
30/08:30pm 7.2 2.9 5.4 88 0.8 S 17 24 9 13 1024.7 1024.8 0.2
30/08:00pm 7.6 2.8 4.9 83 1.2 SSW 19 26 10 14 1024.6 1024.7 0.2
30/07:30pm 7.2 2.6 5.4 88 0.8 SSW 19 28 10 15 1024.4 1024.5 0.2
30/07:00pm 7.4 3.4 4.9 84 1.1 SSW 15 22 8 12 1024.5 1024.6 0.2
30/06:30pm 7.5 3.5 5.0 84 1.1 SSW 15 20 8 11 1024.4 1024.5 0.2
30/06:00pm 7.7 3.4 5.2 84 1.1 SSW 17 22 9 12 1024.2 1024.3 0.2
30/05:30pm 7.6 3.3 5.3 85 1.0 SSW 17 22 9 12 1024.1 1024.2 0.2
30/05:00pm 7.6 3.0 5.6 87 0.9 S 19 28 10 15 1024.0 1024.1 0.2
30/04:30pm 7.8 3.1 6.0 88 0.8 S 20 35 11 19 1024.1 1024.2 0.2
30/04:00pm 9.2 3.7 4.2 71 2.2 S 22 32 12 17 1024.0 1024.1 0.2
30/03:30pm 9.5 3.6 4.0 68 2.4 S 24 35 13 19 1024.0 1024.1 0.2
30/03:00pm 9.3 3.4 4.0 69 2.3 S 24 37 13 20 1024.0 1024.1 0.2
30/02:30pm 9.7 3.7 3.2 64 2.8 S 24 37 13 20 1024.1 1024.2 0.2
30/02:00pm 10.5 5.2 3.1 60 3.2 SSW 20 30 11 16 1023.9 1024.0 0.2
30/01:30pm 9.7 3.8 4.0 67 2.5 SSW 24 37 13 20 1024.2 1024.3 0.2
30/01:00pm 8.9 3.0 3.8 70 2.2 S 24 33 13 18 1024.3 1024.4 0.2
30/12:30pm 8.9 2.5 3.0 66 2.5 SSE 26 39 14 21 1024.3 1024.4 0.2
30/12:00pm 9.2 2.7 2.6 63 2.8 S 26 39 14 21 1024.9 1025.0 0.2
30/11:30am 9.7 3.5 2.3 60 3.1 SSW 24 41 13 22 1025.4 1025.5 0.2
30/11:00am 9.6 3.9 3.1 64 2.8 SSW 22 33 12 18 1025.5 1025.6 0.2
30/10:30am 8.6 2.6 3.5 70 2.2 SSW 24 35 13 19 1025.6 1025.7 0.2

Other Formats:

Comma delimited format used in spreadsheet applications
http://www.bom.gov.au/fwo/IDT60801/IDT60801.94970.axf

JavaScript Object Notation format (JSON) in row-major order
http://www.bom.gov.au/fwo/IDT60801/IDT60801.94970.json